Airfield :
LOGIN :

Register | Disclaimer

   EN    FR    IT 

 










Legend :    VFR   Marginal VFR   IFR   Intensive IFR   Very Intensive IFR
Visi :
Ceiling :
>= 8 km
>= 3000ft
5 to 8 km
1000 to 3000 ft
1500m to 5 km
500 to 1000 ft
800 to 1500m
200 to 500 ft
< 800m
< 200 ft
Symbols :   Thunderstorms  Fog  Heavy snow  Heavy precipitations  Wind > 20 kt
SIGMETs :     Misc.  Thunderstorms  Icing  Turbulence  Mountain Waves  Volcanic Ashes






- Airport Elevation : 113 ft


EKRS - Ringsted

CURRENT METAR :
  • 161220Z AUTO 21010KT 180V250 9999 NCD 06/05 Q1003

EXPIRED METARs :
  • 161150Z AUTO 21010KT 170V250 9999 NCD 06/05 Q1003
  • 161120Z AUTO 22010KT 190V250 9999 NCD 06/05 Q1003
  • 161050Z AUTO 21011KT 180V250 9999 NCD 05/05 Q1003
  • 161020Z AUTO 21012KT 180V250 9999 NCD 05/05 Q1004
  • 160950Z AUTO 21011KT 170V240 9999 NCD 05/05 Q1004
  • 160920Z AUTO 21012KT 9999 NCD 05/05 Q1004

TAF N/A



MET'MAP, your aeronautical weather chart ! - Copyright ORBIFLY December 2007 - Disclaimer

ORBIFLY MET'MAP TEAM :

Programming & Development : Alexandra Zaïnal
Concept & original design : Baudouin d'Aumeries
Assistance for programming : Marc-Olivier Méhu
Technical & hardware support : Manuel Goepfert

Contact : metmap@orbifly.com




SOURCES & CREDITS :

   NOAA